Time;durP1;ratioP1;P1;durP2;ratioP2;P2;SDS_P1;SDS_P2;PMS_P1;PMS_P2;Temp;Humidity;BMP_temperature;BMP_pressure;BME280_temperature;BME280_humidity;BME280_pressure;Samples;Min_cycle;Max_cycle;Signal;HPM_P1;HPM_P2
2022/09/22 00:01:31;;;;;;;6.03;4.13;;;;;;;9.12;77.20;99569.69;4964207;28;20033;-89
2022/09/22 00:03:59;;;;;;;5.28;3.70;;;;;;;8.95;77.45;99558.25;4980417;28;20022;-88
2022/09/22 00:06:26;;;;;;;5.07;3.13;;;;;;;9.02;76.97;99556.94;4963865;28;20022;-89
2022/09/22 00:08:53;;;;;;;8.57;4.10;;;;;;;9.09;76.93;99559.44;4979778;28;20446;-89
2022/09/22 00:11:27;;;;;;;6.82;3.97;;;;;;;8.94;77.58;99559.28;4964079;28;20022;-90
2022/09/22 00:13:55;;;;;;;6.43;3.63;;;;;;;8.90;77.47;99549.06;4980785;28;20025;-90
2022/09/22 00:16:23;;;;;;;4.70;3.35;;;;;;;8.90;77.76;99551.75;4964193;28;20054;-90
2022/09/22 00:18:48;;;;;;;7.13;3.72;;;;;;;8.81;78.04;99560.50;4980212;28;20025;-91
2022/09/22 00:21:16;;;;;;;4.50;3.10;;;;;;;8.74;78.55;99554.53;4964024;28;20401;-91
2022/09/22 00:23:41;;;;;;;6.13;3.63;;;;;;;8.92;77.03;99554.16;4964100;28;20029;-90
2022/09/22 00:26:09;;;;;;;5.20;3.47;;;;;;;8.88;77.27;99555.72;4980121;28;20030;-90
2022/09/22 00:28:35;;;;;;;4.97;3.30;;;;;;;8.81;78.30;99550.56;4960914;28;20551;-91
2022/09/22 00:31:07;;;;;;;4.32;2.83;;;;;;;8.64;78.31;99547.97;4960995;28;20109;-90
2022/09/22 00:33:33;;;;;;;4.57;2.90;;;;;;;8.57;78.16;99541.16;4948157;28;20476;-89
2022/09/22 00:35:59;;;;;;;5.22;3.22;;;;;;;8.58;78.14;99532.06;4979756;28;20033;-91
2022/09/22 00:38:24;;;;;;;4.90;3.00;;;;;;;8.49;78.46;99537.06;4980145;28;20030;-90
2022/09/22 00:40:50;;;;;;;4.75;2.70;;;;;;;8.61;78.14;99534.22;4963653;28;20531;-90
2022/09/22 00:43:24;;;;;;;5.15;2.78;;;;;;;8.59;77.65;99534.50;4963718;28;20041;-91
2022/09/22 00:46:01;;;;;;;3.95;2.72;;;;;;;8.49;78.16;99543.22;4964083;28;20022;-91
2022/09/22 00:48:28;;;;;;;4.30;2.97;;;;;;;8.55;77.97;99546.81;4979904;28;20080;-91
2022/09/22 00:50:54;;;;;;;6.55;2.72;;;;;;;8.43;78.33;99536.19;4979780;28;20109;-91
2022/09/22 00:53:19;;;;;;;3.35;2.63;;;;;;;8.49;78.11;99543.22;4963418;28;20034;-91
2022/09/22 00:56:12;;;;;;;3.70;2.72;;;;;;;8.74;77.20;99554.53;4963399;28;20029;-91
2022/09/22 00:58:40;;;;;;;3.92;2.55;;;;;;;8.58;77.19;99532.88;4973127;28;20044;-91
2022/09/22 01:01:08;;;;;;;5.13;2.70;;;;;;;8.67;76.75;99539.44;4963573;28;20045;-91
2022/09/22 01:03:33;;;;;;;4.07;2.53;;;;;;;8.72;77.13;99548.59;4963368;28;20018;-90
2022/09/22 01:06:02;;;;;;;3.65;2.50;;;;;;;8.75;77.53;99561.50;4979422;28;20087;-91
2022/09/22 01:08:27;;;;;;;3.55;2.30;;;;;;;8.54;78.20;99539.00;4963496;28;20117;-91
2022/09/22 01:10:53;;;;;;;4.30;2.42;;;;;;;8.58;76.94;99530.19;4980005;28;20457;-91
2022/09/22 01:13:34;;;;;;;4.60;2.42;;;;;;;8.81;77.26;99557.81;4963161;28;20025;-91
2022/09/22 01:16:10;;;;;;;3.42;2.53;;;;;;;8.88;76.70;99561.94;4996075;28;20089;-90
2022/09/22 01:18:52;;;;;;;4.20;2.17;;;;;;;8.74;77.72;99551.84;4979608;28;20398;-91
2022/09/22 01:21:24;;;;;;;;;;;;;;;8.92;76.92;99554.16;4982107;28;20026;-91
2022/09/22 01:24:24;;;;;;;2.85;2.13;;;;;;;8.82;76.92;99564.78;4996093;28;19909;-90
2022/09/22 01:26:55;;;;;;;3.17;2.00;;;;;;;8.82;77.06;99548.69;4996385;28;20468;-90
2022/09/22 01:29:45;;;;;;;6.55;2.53;;;;;;;8.61;78.42;99556.53;4995291;28;20030;-90
2022/09/22 01:32:22;;;;;;;3.78;2.25;;;;;;;8.47;78.74;99534.63;5012976;28;20396;-90
2022/09/22 01:35:13;;;;;;;6.10;2.80;;;;;;;8.43;78.43;99536.19;4979054;28;20021;-90
2022/09/22 01:38:07;;;;;;;3.53;2.42;;;;;;;8.49;78.65;99559.34;4997601;28;20022;-90
2022/09/22 01:40:53;;;;;;;3.78;2.47;;;;;;;8.32;78.55;99537.06;5012688;28;20026;-90
2022/09/22 01:43:30;;;;;;;3.22;2.25;;;;;;;8.58;77.93;99562.38;4962235;28;20029;-90
2022/09/22 01:45:56;;;;;;;4.57;2.03;;;;;;;8.61;77.83;99555.69;4993080;28;20034;-90
2022/09/22 01:48:26;;;;;;;3.83;2.38;;;;;;;8.59;77.66;99542.56;4960856;28;20599;-90
2022/09/22 01:50:54;;;;;;;2.97;2.20;;;;;;;8.87;77.07;99570.22;4979178;28;20088;-90
2022/09/22 01:53:22;;;;;;;3.20;2.33;;;;;;;8.89;76.89;99560.84;4978977;28;20034;-90
2022/09/22 01:55:51;;;;;;;4.10;2.15;;;;;;;8.80;76.90;99550.81;4962871;28;20117;-90
2022/09/22 01:58:20;;;;;;;4.70;2.70;;;;;;;8.83;77.03;99535.00;4962986;28;20476;-90
2022/09/22 02:00:53;;;;;;;3.13;2.10;;;;;;;8.98;76.74;99544.28;4963445;28;20026;-90
2022/09/22 02:03:22;;;;;;;3.22;2.30;;;;;;;8.82;76.89;99533.41;4963343;28;20036;-90
2022/09/22 02:05:54;;;;;;;3.25;2.10;;;;;;;8.95;76.98;99555.56;4979046;28;20037;-90
2022/09/22 02:08:36;;;;;;;3.20;2.13;;;;;;;8.84;77.83;99542.03;4963104;28;20026;-90
2022/09/22 02:11:08;;;;;;;6.75;2.20;;;;;;;8.90;77.56;99551.75;4978956;28;20026;-89
2022/09/22 02:13:34;;;;;;;2.75;2.00;;;;;;;8.69;77.53;99526.56;4960368;28;20114;-90
2022/09/22 02:16:00;;;;;;;4.00;1.80;;;;;;;8.79;77.04;99547.31;4943477;28;20410;-91
2022/09/22 02:18:55;;;;;;;4.25;2.00;;;;;;;8.66;76.47;99527.06;4942985;28;20029;-90
2022/09/22 02:21:21;;;;;;;3.38;2.00;;;;;;;8.63;77.01;99537.47;4978029;28;20117;-89
2022/09/22 02:23:47;;;;;;;2.42;1.90;;;;;;;8.77;76.25;99538.69;4943726;28;20517;-90
2022/09/22 02:26:16;;;;;;;4.90;1.88;;;;;;;8.84;76.32;99543.88;4943639;28;20041;-91
2022/09/22 02:28:41;;;;;;;3.90;1.83;;;;;;;8.63;76.54;99532.94;4948392;28;20033;-90
2022/09/22 02:31:08;;;;;;;4.60;1.92;;;;;;;8.63;76.98;99535.63;4965240;28;20022;-90
2022/09/22 02:33:37;;;;;;;3.67;2.05;;;;;;;8.81;76.49;99555.13;4982576;28;20018;-90
2022/09/22 02:36:40;;;;;;;2.83;2.13;;;;;;;8.78;77.22;99556.44;4983084;28;20054;-90
2022/09/22 02:39:07;;;;;;;3.63;1.77;;;;;;;8.61;76.78;99548.47;4982533;28;20029;-90
2022/09/22 02:41:41;;;;;;;4.45;1.88;;;;;;;8.80;76.77;99557.00;4982984;28;20080;-90
2022/09/22 02:44:13;;;;;;;3.05;1.95;;;;;;;8.62;76.81;99543.91;4982676;28;20476;-90
2022/09/22 02:46:42;;;;;;;3.22;1.92;;;;;;;8.65;77.41;99552.28;4966293;28;20044;-90
2022/09/22 02:49:15;;;;;;;3.80;2.00;;;;;;;8.76;76.34;99555.88;4965605;28;20022;-90
2022/09/22 02:51:41;;;;;;;2.92;1.90;;;;;;;8.57;77.38;99543.84;4965464;28;20125;-89
2022/09/22 02:54:06;;;;;;;2.67;1.80;;;;;;;8.80;76.18;99564.22;4965752;28;20033;-90
2022/09/22 02:56:32;;;;;;;3.85;2.00;;;;;;;8.74;76.22;99546.47;4981586;28;20088;-90
2022/09/22 02:58:57;;;;;;;2.92;2.08;;;;;;;8.73;77.42;99553.69;4982254;28;20064;-89
2022/09/22 03:01:23;;;;;;;3.90;2.50;;;;;;;8.80;76.61;99556.16;4981757;28;20405;-90
2022/09/22 03:03:48;;;;;;;2.80;1.85;;;;;;;8.58;77.14;99538.22;4966476;28;20473;-89
2022/09/22 03:06:14;;;;;;;2.13;1.63;;;;;;;8.49;77.13;99540.56;5016076;28;20033;-89
2022/09/22 03:08:40;;;;;;;5.85;1.90;;;;;;;8.57;77.04;99549.22;4982419;28;20053;-90
2022/09/22 03:11:05;;;;;;;4.78;2.67;;;;;;;8.43;77.80;99548.81;4965812;28;20025;-90
2022/09/22 03:13:31;;;;;;;4.65;2.28;;;;;;;8.36;77.84;99548.13;4963545;28;20476;-89
2022/09/22 03:15:56;;;;;;;5.97;2.13;;;;;;;8.49;77.41;99558.53;4951352;29;20442;-89
2022/09/22 03:18:22;;;;;;;3.28;2.03;;;;;;;8.38;76.94;99552.19;4940996;29;20023;-89
2022/09/22 03:20:47;;;;;;;3.55;1.70;;;;;;;8.47;76.76;99552.59;4924172;29;20023;-90
2022/09/22 03:23:13;;;;;;;3.25;2.33;;;;;;;8.61;76.19;99553.84;4940474;28;20383;-89
2022/09/22 03:25:38;;;;;;;2.45;1.83;;;;;;;8.63;76.11;99546.34;4959381;28;20053;-90
2022/09/22 03:28:04;;;;;;;4.05;2.17;;;;;;;8.79;76.13;99554.56;4943540;28;20037;-90
2022/09/22 03:30:29;;;;;;;3.80;1.92;;;;;;;8.60;77.20;99551.41;4940955;29;20027;-90
2022/09/22 03:32:54;;;;;;;3.38;1.90;;;;;;;8.46;78.34;99553.66;4924175;29;20035;-90
2022/09/22 03:35:20;;;;;;;4.90;2.15;;;;;;;8.43;77.89;99556.84;4924110;29;20039;-90
2022/09/22 03:37:46;;;;;;;3.10;2.00;;;;;;;8.39;78.05;99556.50;4940014;29;20031;-89
2022/09/22 03:40:11;;;;;;;3.10;2.03;;;;;;;8.31;77.89;99551.56;4939620;29;20038;-89
2022/09/22 03:42:36;;;;;;;2.28;1.83;;;;;;;8.45;77.29;99558.22;4939948;29;20398;-90
2022/09/22 03:45:03;;;;;;;2.78;1.90;;;;;;;8.42;77.04;99550.66;4937868;28;20031;-90
2022/09/22 03:47:28;;;;;;;3.78;2.30;;;;;;;8.37;76.81;99566.66;4942220;28;20035;-90
2022/09/22 03:49:54;;;;;;;3.67;2.40;;;;;;;8.45;77.21;99568.94;4925189;29;20030;-90
2022/09/22 03:52:19;;;;;;;3.83;2.53;;;;;;;8.40;77.78;99559.97;4920088;29;20035;-90
2022/09/22 03:54:45;;;;;;;5.20;2.60;;;;;;;8.40;77.53;99563.47;4928616;28;20031;-89
2022/09/22 03:57:10;;;;;;;3.50;2.13;;;;;;;8.29;77.79;99575.94;4942272;28;20041;-89
2022/09/22 03:59:36;;;;;;;4.68;2.20;;;;;;;8.39;77.66;99577.97;4942859;28;20037;-89
2022/09/22 04:02:03;;;;;;;4.53;2.38;;;;;;;8.64;76.38;99584.75;4942396;28;20506;-89
2022/09/22 04:04:28;;;;;;;4.07;1.92;;;;;;;8.68;76.57;99578.63;4943282;28;20479;-89
2022/09/22 04:06:54;;;;;;;4.72;2.25;;;;;;;8.82;75.97;99587.09;4958892;28;20034;-92
2022/09/22 04:09:19;;;;;;;3.40;2.00;;;;;;;8.92;75.62;99583.69;4930334;29;20031;-90
2022/09/22 04:11:45;;;;;;;2.63;2.00;;;;;;;9.00;75.22;99580.56;4904387;29;20024;-90
2022/09/22 04:14:10;;;;;;;5.15;2.20;;;;;;;9.17;74.63;99590.41;4919927;29;20042;-91
2022/09/22 04:16:36;;;;;;;3.50;2.00;;;;;;;9.20;75.45;99592.59;4903494;29;20430;-91
2022/09/22 04:19:03;;;;;;;6.65;2.72;;;;;;;9.08;75.99;99582.00;4935296;29;20156;-90
2022/09/22 04:21:29;;;;;;;4.97;2.25;;;;;;;8.84;76.53;99582.28;4935509;29;20034;-90
2022/09/22 04:23:55;;;;;;;5.60;3.15;;;;;;;8.87;76.94;99584.47;4923224;29;20038;-90
2022/09/22 04:26:21;;;;;;;8.52;3.78;;;;;;;8.77;76.94;99575.47;4955224;29;20098;-90
2022/09/22 04:28:46;;;;;;;5.45;2.70;;;;;;;8.70;77.83;99576.50;4922172;29;20031;-89
2022/09/22 04:31:11;;;;;;;4.47;3.08;;;;;;;8.81;77.09;99598.09;4922542;29;20450;-90
2022/09/22 04:33:37;;;;;;;4.72;2.80;;;;;;;8.68;77.55;99586.66;4922430;29;20394;-89
2022/09/22 04:36:03;;;;;;;7.18;3.67;;;;;;;8.83;76.98;99586.03;4922335;29;20027;-89
2022/09/22 04:38:28;;;;;;;6.25;3.25;;;;;;;8.83;77.03;99569.91;4953673;29;20026;-90
2022/09/22 04:40:53;;;;;;;6.40;3.25;;;;;;;8.99;76.19;99596.94;4937838;29;20031;-90
2022/09/22 04:43:19;;;;;;;7.25;3.47;;;;;;;8.97;76.25;99574.91;4938826;28;20023;-90
2022/09/22 04:45:45;;;;;;;5.10;3.08;;;;;;;8.93;76.53;99563.03;4941162;28;20121;-90
2022/09/22 04:48:11;;;;;;;6.30;4.47;;;;;;;8.90;76.41;99573.22;4957433;28;20420;-90
2022/09/22 04:50:36;;;;;;;7.50;3.60;;;;;;;9.02;77.30;99596.44;4957890;28;20035;-89
2022/09/22 04:53:02;;;;;;;5.30;2.85;;;;;;;8.89;76.97;99585.03;4940835;28;20034;-90
2022/09/22 04:55:27;;;;;;;7.40;3.30;;;;;;;8.96;76.90;99579.44;4940874;28;20109;-90
2022/09/22 04:57:56;;;;;;;9.18;3.15;;;;;;;9.03;76.34;99595.38;4957062;28;20027;-89
2022/09/22 05:00:23;;;;;;;10.60;4.53;;;;;;;8.94;76.55;99586.94;4941244;28;20436;-90
2022/09/22 05:02:48;;;;;;;10.40;3.85;;;;;;;8.89;77.02;99585.03;4940889;28;20031;-89
2022/09/22 05:05:14;;;;;;;4.38;3.28;;;;;;;8.99;76.41;99591.56;4937369;29;20051;-90
2022/09/22 05:07:47;;;;;;;4.90;3.90;;;;;;;8.99;77.84;99596.94;4950345;29;20039;-90
2022/09/22 05:10:13;;;;;;;7.38;4.22;;;;;;;9.04;77.18;99591.63;4938385;28;20081;-91
2022/09/22 05:12:42;;;;;;;7.40;4.00;;;;;;;9.11;76.62;99581.50;4940756;28;20019;-90
2022/09/22 05:15:08;;;;;;;6.97;3.60;;;;;;;9.03;77.04;99579.28;4940766;28;20028;-89
2022/09/22 05:17:37;;;;;;;6.00;3.50;;;;;;;9.12;76.63;99582.31;4956495;28;20484;-89
2022/09/22 05:20:03;;;;;;;3.90;3.30;;;;;;;9.13;76.91;99582.06;4956727;28;20033;-88
2022/09/22 05:22:29;;;;;;;5.28;3.95;;;;;;;9.09;76.43;99567.50;4957147;28;20061;-89
2022/09/22 05:24:54;;;;;;;5.80;4.53;;;;;;;9.19;76.70;99583.69;4984453;28;20025;-90
2022/09/22 05:27:20;;;;;;;11.23;3.95;;;;;;;9.25;75.98;99587.25;4963375;28;20030;-90
2022/09/22 05:29:45;;;;;;;5.75;4.15;;;;;;;9.25;76.70;99596.13;4962780;28;20029;-90
2022/09/22 05:32:11;;;;;;;7.65;4.43;;;;;;;9.18;76.42;99595.53;4980297;28;20022;-90
2022/09/22 05:34:36;;;;;;;11.73;4.60;;;;;;;9.09;76.63;99583.63;4963260;28;20029;-90
2022/09/22 05:37:02;;;;;;;6.38;4.95;;;;;;;9.20;77.37;99600.66;4979537;28;20026;-92
2022/09/22 05:39:27;;;;;;;14.77;6.20;;;;;;;9.13;76.61;99590.13;4979282;28;20397;-90
2022/09/22 05:41:53;;;;;;;9.02;6.40;;;;;;;9.27;76.72;99596.69;4980167;28;20026;-89
2022/09/22 05:44:20;;;;;;;9.32;6.10;;;;;;;9.41;76.28;99602.47;4963875;28;20084;-90
2022/09/22 05:46:46;;;;;;;9.88;6.20;;;;;;;9.47;75.81;99590.69;4964364;28;20033;-89
2022/09/22 05:49:12;;;;;;;10.48;5.40;;;;;;;9.56;75.67;99603.66;4979824;28;20029;-90
2022/09/22 05:51:38;;;;;;;11.57;5.75;;;;;;;9.58;75.50;99585.41;4980653;28;20014;-90
2022/09/22 05:54:03;;;;;;;12.75;6.53;;;;;;;9.66;75.28;99590.31;4995671;28;20018;-89
2022/09/22 05:56:30;;;;;;;9.85;6.18;;;;;;;9.87;74.92;99600.13;4978997;28;20407;-89
2022/09/22 05:58:55;;;;;;;13.20;6.22;;;;;;;10.03;74.80;99608.31;4963025;28;20026;-89
2022/09/22 06:01:21;;;;;;;10.15;6.30;;;;;;;9.88;74.58;99574.88;4962393;28;20057;-89
2022/09/22 06:03:46;;;;;;;10.70;7.05;;;;;;;10.14;73.87;99601.13;4954582;28;20038;-89
2022/09/22 06:06:13;;;;;;;10.52;7.38;;;;;;;10.16;73.88;99601.69;4959897;28;20019;-89
2022/09/22 06:08:39;;;;;;;16.52;7.55;;;;;;;10.08;74.93;99597.59;4943728;28;20062;-89
2022/09/22 06:11:05;;;;;;;15.35;7.68;;;;;;;10.19;74.53;99604.66;4944002;28;20057;-90
2022/09/22 06:13:30;;;;;;;12.38;8.25;;;;;;;10.20;74.85;99608.97;4959370;28;20221;-89
2022/09/22 06:15:55;;;;;;;10.65;7.10;;;;;;;10.33;74.41;99605.03;4958895;28;20073;-89
2022/09/22 06:18:24;;;;;;;9.70;6.22;;;;;;;10.46;73.77;99609.16;4982293;28;20027;-90
2022/09/22 06:20:49;;;;;;;13.35;7.53;;;;;;;10.59;72.90;99614.06;4967646;28;20033;-90
2022/09/22 06:23:14;;;;;;;7.47;5.85;;;;;;;10.66;72.33;99605.72;4982377;28;20465;-90
2022/09/22 06:25:42;;;;;;;13.98;4.63;;;;;;;10.90;71.03;99604.22;4982529;28;20488;-90
2022/09/22 06:28:08;;;;;;;9.43;4.93;;;;;;;11.02;70.67;99603.16;4965970;28;20030;-90
2022/09/22 06:30:35;;;;;;;9.75;5.00;;;;;;;11.02;70.84;99612.06;4966282;28;20026;-90
2022/09/22 06:33:00;;;;;;;8.48;4.97;;;;;;;11.10;70.67;99608.03;4966124;28;20403;-91
2022/09/22 06:39:04;;;;;;;5.32;3.67;;;;;;;11.29;70.67;99614.53;4954899;29;20042;-91
2022/09/22 06:41:31;;;;;;;6.63;5.28;;;;;;;11.20;70.70;99601.84;4961347;28;20037;-91
2022/09/22 06:43:56;;;;;;;8.18;5.28;;;;;;;11.32;70.37;99611.31;4945586;28;20034;-91
2022/09/22 06:46:25;;;;;;;8.40;4.00;;;;;;;11.55;68.30;99603.78;4962057;28;20018;-91
2022/09/22 06:48:50;;;;;;;7.82;4.60;;;;;;;11.59;69.45;99602.16;4961482;28;20022;-91
2022/09/22 06:51:17;;;;;;;8.20;4.45;;;;;;;11.84;69.10;99606.75;4962600;28;20335;-91
2022/09/22 06:53:43;;;;;;;6.18;3.53;;;;;;;11.96;68.85;99594.91;4939711;29;20021;-89
2022/09/22 06:56:08;;;;;;;5.10;2.72;;;;;;;12.12;66.70;99589.19;4957148;29;20031;-91
2022/09/22 06:58:34;;;;;;;4.68;2.45;;;;;;;12.31;66.57;99594.81;4930692;28;20018;-91
2022/09/22 07:01:06;;;;;;;2.63;1.90;;;;;;;12.43;65.77;99604.50;4962622;28;20089;-91
2022/09/22 07:03:32;;;;;;;1.80;1.35;;;;;;;12.39;62.70;99600.72;4948385;28;20026;-92
2022/09/22 07:06:01;;;;;;;3.55;1.70;;;;;;;12.59;62.82;99587.16;4946837;28;20029;-92
2022/09/22 07:08:28;;;;;;;4.35;2.03;;;;;;;12.76;63.27;99596.81;4962209;28;20109;-92
2022/09/22 07:10:58;;;;;;;3.00;1.80;;;;;;;12.90;62.77;99601.34;4963666;28;20026;-92
2022/09/22 07:13:24;;;;;;;2.35;1.30;;;;;;;13.04;61.55;99596.13;4947123;28;20097;-93
2022/09/22 07:15:50;;;;;;;2.90;1.45;;;;;;;13.18;60.22;99592.81;4963668;28;20085;-95
2022/09/22 07:18:15;;;;;;;3.15;1.70;;;;;;;13.14;61.33;99582.56;4947550;28;20050;-89
2022/09/22 07:20:44;;;;;;;2.47;1.60;;;;;;;13.38;59.38;99598.09;4996384;28;20101;-90
2022/09/22 07:23:16;;;;;;;1.48;1.10;;;;;;;13.45;59.36;99584.28;4979436;28;20029;-90
2022/09/22 07:25:42;;;;;;;2.10;1.40;;;;;;;13.55;60.11;99611.25;4925463;29;20114;-91
2022/09/22 07:28:12;;;;;;;2.13;1.45;;;;;;;13.71;59.38;99593.00;4924317;29;20494;-91
2022/09/22 07:30:39;;;;;;;4.90;3.55;;;;;;;14.01;57.63;99599.22;4940859;29;20030;-92
2022/09/22 07:33:04;;;;;;;2.95;1.40;;;;;;;14.08;57.11;99589.66;4923841;29;20118;-90
2022/09/22 07:35:30;;;;;;;1.63;1.40;;;;;;;13.95;57.24;99595.75;4924039;29;20406;-91
2022/09/22 07:37:59;;;;;;;5.82;2.33;;;;;;;14.18;58.10;99594.19;4939588;29;20038;-90
2022/09/22 07:40:25;;;;;;;4.10;1.45;;;;;;;14.37;56.79;99593.44;4940049;29;20114;-92
2022/09/22 07:42:50;;;;;;;1.73;1.15;;;;;;;14.43;55.94;99595.81;4923693;29;20467;-91
2022/09/22 07:45:16;;;;;;;2.35;1.40;;;;;;;14.44;57.34;99607.44;4936777;29;20031;-90
2022/09/22 07:50:29;;;;;;;2.03;1.70;;;;;;;14.78;54.53;99603.84;4955466;29;20485;-90
2022/09/22 07:52:54;;;;;;;4.70;1.50;;;;;;;14.74;55.62;99601.69;4908170;29;20031;-90
2022/09/22 07:55:23;;;;;;;1.98;1.45;;;;;;;14.68;55.09;99602.03;4959526;28;20034;-91
2022/09/22 07:57:56;;;;;;;1.63;1.05;;;;;;;14.87;53.46;99612.91;4963275;28;20026;-89
2022/09/22 08:00:24;;;;;;;1.52;1.05;;;;;;;14.87;53.37;99594.75;4946241;28;20026;-89
2022/09/22 08:02:54;;;;;;;1.40;1.05;;;;;;;15.01;54.53;99613.03;4946184;28;20104;-90
2022/09/22 08:05:23;;;;;;;7.00;1.40;;;;;;;14.87;52.63;99583.91;4945563;28;20030;-90
2022/09/22 08:07:50;;;;;;;1.55;0.93;;;;;;;14.81;53.13;99587.78;4945550;28;20026;-90
2022/09/22 08:10:16;;;;;;;1.55;1.20;;;;;;;14.99;53.30;99597.03;4961833;28;20405;-90
2022/09/22 08:12:42;;;;;;;2.22;1.20;;;;;;;15.10;53.36;99589.56;4963365;28;20073;-90
2022/09/22 08:15:08;;;;;;;2.63;1.00;;;;;;;15.45;51.50;99603.69;4977553;28;20054;-90
2022/09/22 08:17:34;;;;;;;1.55;1.15;;;;;;;15.29;51.14;99584.94;4978505;28;20038;-90
2022/09/22 08:20:03;;;;;;;2.15;1.30;;;;;;;15.36;51.85;99571.81;4945651;28;20473;-90
2022/09/22 08:22:29;;;;;;;1.40;1.08;;;;;;;15.46;52.91;99583.59;4946181;28;20046;-89
2022/09/22 08:24:55;;;;;;;1.88;1.33;;;;;;;15.27;52.23;99570.06;4945944;28;20026;-89
2022/09/22 08:27:20;;;;;;;1.98;1.00;;;;;;;15.43;51.26;99586.91;4961072;28;20421;-89
2022/09/22 08:29:46;;;;;;;1.55;0.98;;;;;;;15.49;50.90;99585.72;4945418;29;20027;-88
2022/09/22 08:32:15;;;;;;;1.58;1.20;;;;;;;15.52;50.34;99557.97;4955672;29;20090;-90
2022/09/22 08:34:40;;;;;;;1.00;0.80;;;;;;;15.77;48.75;99570.34;4956254;29;20066;-91
2022/09/22 08:37:06;;;;;;;1.40;1.13;;;;;;;15.73;49.55;99556.59;4923690;29;20054;-91
2022/09/22 08:39:31;;;;;;;1.58;1.02;;;;;;;15.72;48.70;99554.97;4939468;29;20121;-90
2022/09/22 08:42:09;;;;;;;1.95;1.10;;;;;;;15.88;49.84;99577.22;4938502;29;20031;-91
2022/09/22 08:44:56;;;;;;;2.00;1.42;;;;;;;15.84;49.42;99565.34;4954408;28;20058;-91
2022/09/22 08:53:08;;;;;;;2.88;1.40;;;;;;;15.91;48.66;99576.63;4980958;28;20056;-88
2022/09/22 08:55:35;;;;;;;1.42;0.98;;;;;;;15.74;48.11;99577.19;4960001;28;20026;-89
2022/09/22 08:58:06;;;;;;;2.38;1.08;;;;;;;15.72;47.67;99575.88;4961044;28;20134;-87
2022/09/22 09:00:40;;;;;;;1.30;0.95;;;;;;;15.63;47.06;99556.72;4993753;28;20038;-90
2022/09/22 09:03:40;;;;;;;2.08;1.38;;;;;;;15.78;48.43;99566.53;4944962;28;20030;-91
2022/09/22 09:06:10;;;;;;;1.40;0.93;;;;;;;15.89;47.62;99580.75;4981779;28;20401;-91
2022/09/22 09:08:40;;;;;;;2.47;1.10;;;;;;;15.92;46.70;99561.94;4979816;28;20033;-90
2022/09/22 09:11:40;;;;;;;1.77;0.95;;;;;;;16.00;47.00;99578.66;4961123;28;20022;-91
2022/09/22 09:14:24;;;;;;;5.18;2.40;;;;;;;16.07;48.37;99571.72;4977282;28;20061;-90
2022/09/22 09:16:56;;;;;;;1.20;1.00;;;;;;;15.98;46.94;99561.84;4982726;28;20061;-93
2022/09/22 09:19:30;;;;;;;1.23;0.80;;;;;;;16.06;47.68;99564.69;4978914;28;20045;-91
2022/09/22 09:21:58;;;;;;;1.02;0.90;;;;;;;15.92;48.45;99553.00;4977902;28;20532;-92
2022/09/22 09:24:33;;;;;;;1.73;1.00;;;;;;;15.84;48.87;99546.34;4979094;28;20027;-92
2022/09/22 09:27:08;;;;;;;1.95;1.20;;;;;;;15.82;48.59;99547.75;4947713;28;20056;-93
2022/09/22 09:29:43;;;;;;;1.40;0.90;;;;;;;15.69;48.05;99533.03;4976077;28;20501;-93
2022/09/22 09:32:37;;;;;;;1.50;0.98;;;;;;;16.02;47.44;99552.00;4961954;28;20495;-92
2022/09/22 09:35:03;;;;;;;2.30;1.10;;;;;;;16.21;46.80;99552.72;4969487;28;20038;-91
2022/09/22 09:37:28;;;;;;;2.20;1.20;;;;;;;16.03;46.92;99551.69;4961104;28;20033;-93
2022/09/22 09:39:54;;;;;;;1.70;1.10;;;;;;;16.12;46.41;99547.19;4928765;29;20033;-92
2022/09/22 09:42:23;;;;;;;1.25;0.90;;;;;;;16.15;45.43;99556.66;4910768;29;20035;-92
2022/09/22 09:44:52;;;;;;;1.70;1.00;;;;;;;16.03;46.62;99535.41;4958904;29;20497;-90
2022/09/22 09:47:26;;;;;;;1.15;0.75;;;;;;;16.24;44.46;99538.53;4943451;29;20458;-96
2022/09/22 09:49:53;;;;;;;1.63;1.00;;;;;;;16.39;44.90;99561.88;4967246;29;20027;-92
2022/09/22 09:52:19;;;;;;;0.90;0.75;;;;;;;16.14;44.29;99533.28;4944845;29;20091;-91
2022/09/22 09:54:46;;;;;;;1.25;1.00;;;;;;;16.14;45.46;99538.72;4911579;29;20461;-93
2022/09/22 09:57:15;;;;;;;2.83;0.93;;;;;;;16.25;45.18;99552.91;4926106;29;20027;-92
2022/09/22 10:03:11;;;;;;;1.58;0.95;;;;;;;16.21;43.50;99532.88;4947898;29;20043;-91
2022/09/22 10:05:37;;;;;;;1.30;0.90;;;;;;;16.33;44.08;99536.72;4927960;29;20510;-91
2022/09/22 10:08:14;;;;;;;1.85;1.30;;;;;;;16.28;44.09;99527.88;4910009;29;20027;-91
2022/09/22 10:10:40;;;;;;;1.50;1.02;;;;;;;16.40;44.49;99535.53;4926677;29;20478;-94
2022/09/22 10:13:05;;;;;;;2.90;1.13;;;;;;;16.60;44.35;99553.31;4911155;29;20082;-91
2022/09/22 10:15:38;;;;;;;1.40;1.05;;;;;;;16.55;43.67;99518.88;4959068;29;20082;-91
2022/09/22 10:18:22;;;;;;;3.47;1.02;;;;;;;16.62;45.01;99540.22;4925636;29;20078;-91
2022/09/22 10:20:56;;;;;;;1.25;0.77;;;;;;;16.72;43.44;99537.28;4958624;29;20059;-92
2022/09/22 10:23:22;;;;;;;1.98;1.00;;;;;;;16.78;43.75;99530.63;4941573;29;20027;-91
2022/09/22 10:26:00;;;;;;;1.70;1.00;;;;;;;16.85;43.00;99508.47;4957689;29;20039;-91
2022/09/22 10:28:25;;;;;;;1.85;1.10;;;;;;;17.06;42.81;99516.97;4910242;28;20039;-90
2022/09/22 10:31:03;;;;;;;1.92;1.02;;;;;;;17.00;43.21;99523.66;4944805;28;20061;-90
2022/09/22 10:33:29;;;;;;;2.58;2.05;;;;;;;16.95;43.74;99516.41;4961006;28;20533;-91
2022/09/22 10:36:03;;;;;;;1.40;0.98;;;;;;;17.03;41.69;99531.97;4959709;28;20038;-93
2022/09/22 10:38:32;;;;;;;1.48;1.08;;;;;;;16.92;42.10;99508.88;4956839;28;20066;-90
2022/09/22 10:41:09;;;;;;;2.20;1.35;;;;;;;16.97;42.97;99516.88;4923833;29;20031;-92
2022/09/22 10:43:55;;;;;;;2.75;1.70;;;;;;;17.08;42.69;99522.88;4923762;29;20027;-92
2022/09/22 10:46:57;;;;;;;1.45;1.08;;;;;;;16.97;42.31;99525.06;4923409;29;20043;-92
2022/09/22 10:49:45;;;;;;;1.30;1.00;;;;;;;16.67;44.03;99521.88;4949748;28;20101;-92
2022/09/22 10:52:21;;;;;;;1.05;0.90;;;;;;;16.51;44.06;99510.53;4957575;28;20142;-92
2022/09/22 10:55:13;;;;;;;1.92;1.02;;;;;;;16.37;44.05;99504.28;4930018;29;20039;-92
2022/09/22 10:58:07;;;;;;;1.52;0.95;;;;;;;16.15;44.90;99518.63;4931022;29;20050;-92
2022/09/22 11:00:36;;;;;;;1.52;1.00;;;;;;;16.08;44.41;99496.47;4979412;28;20030;-92
2022/09/22 11:03:39;;;;;;;1.10;0.98;;;;;;;16.21;45.26;99514.69;4950296;28;20026;-93
2022/09/22 11:12:17;;;;;;;2.40;1.10;;;;;;;16.93;41.52;99489.53;4981311;28;20107;-92
2022/09/22 11:15:05;;;;;;;1.30;1.00;;;;;;;17.23;41.47;99479.00;4996631;28;20034;-93
2022/09/22 11:17:52;;;;;;;5.22;2.90;;;;;;;17.47;41.20;99480.59;4964447;28;20043;-93
2022/09/22 11:20:33;;;;;;;1.75;1.00;;;;;;;17.43;40.34;99482.31;4979062;28;20209;-93
2022/09/22 11:23:33;;;;;;;1.42;0.90;;;;;;;17.43;40.30;99483.16;4978442;28;20064;-91
2022/09/22 11:26:16;;;;;;;0.73;0.63;;;;;;;17.16;39.53;99484.88;4956065;29;20031;-92
2022/09/22 11:29:14;;;;;;;1.23;0.90;;;;;;;17.24;39.49;99477.88;4956059;29;20494;-94
2022/09/22 11:31:41;;;;;;;1.23;0.80;;;;;;;17.11;39.73;99446.09;4955751;29;20023;-93
2022/09/22 11:34:09;;;;;;;1.17;0.80;;;;;;;17.31;40.51;99461.13;4940111;29;20409;-94
2022/09/22 11:37:24;;;;;;;1.58;1.10;;;;;;;17.15;40.39;99452.53;4957440;29;20049;-93
2022/09/22 11:40:10;;;;;;;1.20;0.90;;;;;;;17.23;37.16;99461.88;4942749;29;20047;-94
2022/09/22 11:42:57;;;;;;;1.95;1.58;;;;;;;17.33;38.79;99470.59;4941088;29;20023;-93
2022/09/22 11:45:32;;;;;;;1.88;1.10;;;;;;;17.49;37.82;99465.56;4956264;29;20033;-94
2022/09/22 11:48:02;;;;;;;5.70;1.20;;;;;;;17.71;38.46;99469.34;4957171;29;20537;-94
2022/09/22 11:50:38;;;;;;;1.73;0.77;;;;;;;17.66;38.59;99439.50;4940868;29;20023;-93
2022/09/22 11:53:09;;;;;;;1.08;0.82;;;;;;;18.07;37.53;99469.19;4939965;29;20478;-91
2022/09/22 11:55:55;;;;;;;1.00;0.85;;;;;;;18.19;38.23;99479.47;4956888;29;20023;-93
2022/09/22 11:58:22;;;;;;;1.17;0.98;;;;;;;18.19;38.26;99463.13;4957875;28;20042;-94
2022/09/22 12:01:02;;;;;;;3.83;1.30;;;;;;;18.16;38.19;99441.97;4962192;28;20088;-96
2022/09/22 12:04:06;;;;;;;5.32;0.90;;;;;;;18.34;37.59;99472.78;4947426;28;20497;-94
2022/09/22 12:06:35;;;;;;;2.28;1.33;;;;;;;18.18;38.03;99445.97;4978862;28;20030;-94
2022/09/22 12:09:03;;;;;;;1.23;1.02;;;;;;;18.15;37.66;99457.50;4962149;28;20030;-93
2022/09/22 12:11:30;;;;;;;1.08;0.70;;;;;;;18.04;36.28;99442.56;4963546;28;20068;-94
2022/09/22 12:13:56;;;;;;;1.38;0.80;;;;;;;18.13;36.90;99443.38;4946477;28;20117;-95